FKS weather

Frankfort Dow Memorial Field
Frankfort, Michigan, United States

Public forecast

Using degrees Fahrenheit for public forecast. Weather courtesy of forecast.io.

METAR (pilot weather report)

Retrieved 2019/06/16 13:36 UTC (19 minutes ago):

KFKS 161336Z AUTO 08004KT 10SM OVC110 14/07 A2991 RMK AO2 T01360067

TAF (pilot weather forecast)

Closest forecast is Manistee Co Blacker Airport, 21.3 nm (39.4 km) S. Retrieved 2019/06/16 12:21 UTC (2 hours ago):

TAF KMBL 161120Z 1612/1712 08007KT P6SM BKN040 BKN070 FM161600 04006KT P6SM BKN060 FM161900 36006KT P6SM OVC060 FM170000 05006KT P6SM BKN060 FM170300 VRB03KT P6SM BKN090